Decoded Metar for KDAN (DANVILLE in VA, USA) (IATA:DAN) | Meteo·Mobile Aviation Weather
aviador You're here:

KDAN Decoded Metar

DANVILLE in VA, USA
Report Time2019-02-16 06:53:00
UTC Time2019-02-16 07:53:00
Flight Rules vfr VFR
WindCalm
Visibility9999 m
Phenomena:N/A
Clouds:Scattered 046 Hf
Overcast 065 Hf
Expected CloudBase > 1,600 ft AGL from Temp-Dew spread
Ceiling6,500 ft
Temp11°C (ISA -3)
Dew Point07°C (77% RH)
AAT10.3°C
QNH1009 hPa
Density Alt509 ft
Elevation574 ft
Report Wrong Elevation
Raw Report
METAR KDAN 160653Z AUTO 00000KT 10SM SCT046 OVC065 11/07 A2980 RMK
AO2 SLP083 T01060072=

Extra information for KDAN:More info

Metar Taf Metar & Taf Last 4 Metars F.Rules Stats Wind Profile Meteogram Temp Stats Airport Information Weather charts Add Link Nearby VenuesMetar ALERT Operation Metar Decoded Social comments

AIRNAV info for KDAN